sensor_id;sensor_type;location;lat;lon;timestamp;temperature;humidity
21568;DHT22;10944;42.590;12.630;2022-10-31T00:03:47;11.50;99.90
21568;DHT22;10944;42.590;12.630;2022-10-31T00:06:14;11.50;99.90
21568;DHT22;10944;42.590;12.630;2022-10-31T00:08:40;11.50;99.90
21568;DHT22;10944;42.590;12.630;2022-10-31T00:11:09;11.50;99.90
21568;DHT22;10944;42.590;12.630;2022-10-31T00:13:35;11.50;99.90
21568;DHT22;10944;42.590;12.630;2022-10-31T00:16:01;11.40;99.90
21568;DHT22;10944;42.590;12.630;2022-10-31T00:18:27;11.40;99.90
21568;DHT22;10944;42.590;12.630;2022-10-31T00:21:02;11.40;99.90
21568;DHT22;10944;42.590;12.630;2022-10-31T00:23:28;11.40;99.90
21568;DHT22;10944;42.590;12.630;2022-10-31T00:25:59;11.40;99.90
21568;DHT22;10944;42.590;12.630;2022-10-31T00:28:25;11.40;99.90
21568;DHT22;10944;42.590;12.630;2022-10-31T00:30:51;11.50;99.90
21568;DHT22;10944;42.590;12.630;2022-10-31T00:33:16;11.60;99.90
21568;DHT22;10944;42.590;12.630;2022-10-31T00:35:42;11.60;99.90
21568;DHT22;10944;42.590;12.630;2022-10-31T00:38:08;11.60;99.90
21568;DHT22;10944;42.590;12.630;2022-10-31T00:40:33;11.50;99.90
21568;DHT22;10944;42.590;12.630;2022-10-31T00:42:59;11.40;99.90
21568;DHT22;10944;42.590;12.630;2022-10-31T00:45:25;11.40;99.90
21568;DHT22;10944;42.590;12.630;2022-10-31T00:47:50;11.30;99.90
21568;DHT22;10944;42.590;12.630;2022-10-31T00:50:16;11.30;99.90
21568;DHT22;10944;42.590;12.630;2022-10-31T00:52:42;11.30;99.90
21568;DHT22;10944;42.590;12.630;2022-10-31T00:55:07;11.20;99.90
21568;DHT22;10944;42.590;12.630;2022-10-31T00:57:33;11.20;99.90
21568;DHT22;10944;42.590;12.630;2022-10-31T00:59:59;11.10;99.90
21568;DHT22;10944;42.590;12.630;2022-10-31T01:02:24;11.10;99.90
21568;DHT22;10944;42.590;12.630;2022-10-31T01:04:50;11.00;99.90
21568;DHT22;10944;42.590;12.630;2022-10-31T01:07:16;11.00;99.90
21568;DHT22;10944;42.590;12.630;2022-10-31T01:09:42;10.90;99.90
21568;DHT22;10944;42.590;12.630;2022-10-31T01:12:07;10.90;99.90
21568;DHT22;10944;42.590;12.630;2022-10-31T01:14:33;10.90;99.90
21568;DHT22;10944;42.590;12.630;2022-10-31T01:16:59;10.90;99.90
21568;DHT22;10944;42.590;12.630;2022-10-31T01:19:24;10.80;99.90
21568;DHT22;10944;42.590;12.630;2022-10-31T01:21:50;10.80;99.90
21568;DHT22;10944;42.590;12.630;2022-10-31T01:24:19;10.80;99.90
21568;DHT22;10944;42.590;12.630;2022-10-31T01:26:44;10.80;99.90
21568;DHT22;10944;42.590;12.630;2022-10-31T01:29:10;10.80;99.90
21568;DHT22;10944;42.590;12.630;2022-10-31T01:31:38;10.80;99.90
21568;DHT22;10944;42.590;12.630;2022-10-31T01:34:04;10.80;99.90
21568;DHT22;10944;42.590;12.630;2022-10-31T01:36:35;10.80;99.90
21568;DHT22;10944;42.590;12.630;2022-10-31T01:39:09;10.80;99.90
21568;DHT22;10944;42.590;12.630;2022-10-31T01:41:38;10.70;99.90
21568;DHT22;10944;42.590;12.630;2022-10-31T01:46:54;10.70;99.90
21568;DHT22;10944;42.590;12.630;2022-10-31T01:51:55;10.70;99.90
21568;DHT22;10944;42.590;12.630;2022-10-31T01:54:25;10.70;99.90
21568;DHT22;10944;42.590;12.630;2022-10-31T01:56:54;10.70;99.90
21568;DHT22;10944;42.590;12.630;2022-10-31T01:59:22;10.70;99.90
21568;DHT22;10944;42.590;12.630;2022-10-31T02:01:50;10.70;99.90
21568;DHT22;10944;42.590;12.630;2022-10-31T02:04:18;10.70;99.90
21568;DHT22;10944;42.590;12.630;2022-10-31T02:06:58;10.80;99.90
21568;DHT22;10944;42.590;12.630;2022-10-31T02:09:25;10.80;99.90
21568;DHT22;10944;42.590;12.630;2022-10-31T02:11:52;10.80;99.90
21568;DHT22;10944;42.590;12.630;2022-10-31T02:14:22;10.70;99.90
21568;DHT22;10944;42.590;12.630;2022-10-31T02:16:49;10.60;99.90
21568;DHT22;10944;42.590;12.630;2022-10-31T02:19:21;10.60;99.90
21568;DHT22;10944;42.590;12.630;2022-10-31T02:21:58;10.70;99.90
21568;DHT22;10944;42.590;12.630;2022-10-31T02:24:40;10.70;99.90
21568;DHT22;10944;42.590;12.630;2022-10-31T02:27:32;10.70;99.90
21568;DHT22;10944;42.590;12.630;2022-10-31T02:30:15;10.60;99.90
21568;DHT22;10944;42.590;12.630;2022-10-31T02:33:00;10.70;99.90
21568;DHT22;10944;42.590;12.630;2022-10-31T02:38:21;10.50;99.90
21568;DHT22;10944;42.590;12.630;2022-10-31T02:48:57;10.50;99.90
21568;DHT22;10944;42.590;12.630;2022-10-31T02:51:25;10.50;99.90
21568;DHT22;10944;42.590;12.630;2022-10-31T02:53:51;10.50;99.90
21568;DHT22;10944;42.590;12.630;2022-10-31T02:56:18;10.40;99.90
21568;DHT22;10944;42.590;12.630;2022-10-31T02:59:04;10.50;99.90
21568;DHT22;10944;42.590;12.630;2022-10-31T03:13:02;10.40;99.90
21568;DHT22;10944;42.590;12.630;2022-10-31T03:15:33;10.40;99.90
21568;DHT22;10944;42.590;12.630;2022-10-31T03:20:40;10.40;99.90
21568;DHT22;10944;42.590;12.630;2022-10-31T03:23:11;10.40;99.90
21568;DHT22;10944;42.590;12.630;2022-10-31T03:25:37;10.30;99.90
21568;DHT22;10944;42.590;12.630;2022-10-31T03:28:06;10.40;99.90
21568;DHT22;10944;42.590;12.630;2022-10-31T03:30:34;10.30;99.90
21568;DHT22;10944;42.590;12.630;2022-10-31T03:33:03;10.30;99.90
21568;DHT22;10944;42.590;12.630;2022-10-31T03:35:30;10.30;99.90
21568;DHT22;10944;42.590;12.630;2022-10-31T03:37:59;10.30;99.90
21568;DHT22;10944;42.590;12.630;2022-10-31T03:40:27;10.30;99.90
21568;DHT22;10944;42.590;12.630;2022-10-31T03:43:04;10.20;99.90
21568;DHT22;10944;42.590;12.630;2022-10-31T03:45:39;10.20;99.90
21568;DHT22;10944;42.590;12.630;2022-10-31T03:48:06;10.10;99.90
21568;DHT22;10944;42.590;12.630;2022-10-31T03:50:40;10.10;99.90
21568;DHT22;10944;42.590;12.630;2022-10-31T03:53:14;10.10;99.90
21568;DHT22;10944;42.590;12.630;2022-10-31T03:55:47;10.00;99.90
21568;DHT22;10944;42.590;12.630;2022-10-31T03:58:21;10.10;99.90
21568;DHT22;10944;42.590;12.630;2022-10-31T04:00:51;10.00;99.90
21568;DHT22;10944;42.590;12.630;2022-10-31T04:03:22;10.00;99.90
21568;DHT22;10944;42.590;12.630;2022-10-31T04:05:50;10.00;99.90
21568;DHT22;10944;42.590;12.630;2022-10-31T04:08:20;10.20;99.90
21568;DHT22;10944;42.590;12.630;2022-10-31T04:10:48;10.60;99.90
21568;DHT22;10944;42.590;12.630;2022-10-31T04:13:19;10.80;99.90
21568;DHT22;10944;42.590;12.630;2022-10-31T04:15:46;10.60;99.90
21568;DHT22;10944;42.590;12.630;2022-10-31T04:18:13;10.60;99.90
21568;DHT22;10944;42.590;12.630;2022-10-31T04:20:41;10.60;99.90
21568;DHT22;10944;42.590;12.630;2022-10-31T04:23:19;10.50;99.90
21568;DHT22;10944;42.590;12.630;2022-10-31T04:25:45;10.30;99.90
21568;DHT22;10944;42.590;12.630;2022-10-31T04:28:10;10.20;99.90
21568;DHT22;10944;42.590;12.630;2022-10-31T04:30:36;10.20;99.90
21568;DHT22;10944;42.590;12.630;2022-10-31T04:33:02;10.10;99.90
21568;DHT22;10944;42.590;12.630;2022-10-31T04:35:27;10.00;99.90
21568;DHT22;10944;42.590;12.630;2022-10-31T04:37:53;10.20;99.90
21568;DHT22;10944;42.590;12.630;2022-10-31T04:40:19;10.20;99.90
21568;DHT22;10944;42.590;12.630;2022-10-31T04:42:44;10.10;99.90
21568;DHT22;10944;42.590;12.630;2022-10-31T04:45:10;10.00;99.90
21568;DHT22;10944;42.590;12.630;2022-10-31T04:47:36;10.00;99.90
21568;DHT22;10944;42.590;12.630;2022-10-31T04:50:02;10.00;99.90
21568;DHT22;10944;42.590;12.630;2022-10-31T04:52:28;9.90;99.90
21568;DHT22;10944;42.590;12.630;2022-10-31T04:54:54;9.90;99.90
21568;DHT22;10944;42.590;12.630;2022-10-31T04:57:19;9.90;99.90
21568;DHT22;10944;42.590;12.630;2022-10-31T04:59:45;10.00;99.90
21568;DHT22;10944;42.590;12.630;2022-10-31T05:02:11;10.00;99.90
21568;DHT22;10944;42.590;12.630;2022-10-31T05:04:36;10.00;99.90
21568;DHT22;10944;42.590;12.630;2022-10-31T05:07:02;10.00;99.90
21568;DHT22;10944;42.590;12.630;2022-10-31T05:09:28;10.00;99.90
21568;DHT22;10944;42.590;12.630;2022-10-31T05:11:53;9.90;99.90
21568;DHT22;10944;42.590;12.630;2022-10-31T05:14:19;9.80;99.90
21568;DHT22;10944;42.590;12.630;2022-10-31T05:16:45;9.70;99.90
21568;DHT22;10944;42.590;12.630;2022-10-31T05:19:10;9.70;99.90
21568;DHT22;10944;42.590;12.630;2022-10-31T05:21:36;9.60;99.90
21568;DHT22;10944;42.590;12.630;2022-10-31T05:24:02;9.60;99.90
21568;DHT22;10944;42.590;12.630;2022-10-31T05:26:28;9.50;99.90
21568;DHT22;10944;42.590;12.630;2022-10-31T05:28:53;9.50;99.90
21568;DHT22;10944;42.590;12.630;2022-10-31T05:31:19;9.40;99.90
21568;DHT22;10944;42.590;12.630;2022-10-31T05:33:45;9.40;99.90
21568;DHT22;10944;42.590;12.630;2022-10-31T05:36:11;9.40;99.90
21568;DHT22;10944;42.590;12.630;2022-10-31T05:38:36;9.40;99.90
21568;DHT22;10944;42.590;12.630;2022-10-31T05:41:02;9.40;99.90
21568;DHT22;10944;42.590;12.630;2022-10-31T05:43:28;9.50;99.90
21568;DHT22;10944;42.590;12.630;2022-10-31T05:45:55;9.40;99.90
21568;DHT22;10944;42.590;12.630;2022-10-31T05:48:21;9.40;99.90
21568;DHT22;10944;42.590;12.630;2022-10-31T05:50:48;9.40;99.90
21568;DHT22;10944;42.590;12.630;2022-10-31T05:53:14;9.40;99.90
21568;DHT22;10944;42.590;12.630;2022-10-31T05:55:40;9.40;99.90
21568;DHT22;10944;42.590;12.630;2022-10-31T05:58:06;9.40;99.90
21568;DHT22;10944;42.590;12.630;2022-10-31T06:00:32;9.40;99.90
21568;DHT22;10944;42.590;12.630;2022-10-31T06:03:04;9.30;99.90
21568;DHT22;10944;42.590;12.630;2022-10-31T06:05:31;9.40;99.90
21568;DHT22;10944;42.590;12.630;2022-10-31T06:07:57;9.40;99.90
21568;DHT22;10944;42.590;12.630;2022-10-31T06:10:23;9.40;99.90
21568;DHT22;10944;42.590;12.630;2022-10-31T06:12:49;9.50;99.90
21568;DHT22;10944;42.590;12.630;2022-10-31T06:15:16;9.60;99.90
21568;DHT22;10944;42.590;12.630;2022-10-31T06:17:42;9.70;99.90
21568;DHT22;10944;42.590;12.630;2022-10-31T06:20:08;9.70;99.90
21568;DHT22;10944;42.590;12.630;2022-10-31T06:22:33;9.80;99.90
21568;DHT22;10944;42.590;12.630;2022-10-31T06:24:59;9.90;99.90
21568;DHT22;10944;42.590;12.630;2022-10-31T06:27:26;10.00;99.90
21568;DHT22;10944;42.590;12.630;2022-10-31T06:29:51;10.10;99.90
21568;DHT22;10944;42.590;12.630;2022-10-31T06:32:18;10.20;99.90
21568;DHT22;10944;42.590;12.630;2022-10-31T06:34:44;10.30;99.90
21568;DHT22;10944;42.590;12.630;2022-10-31T06:37:11;10.40;99.90
21568;DHT22;10944;42.590;12.630;2022-10-31T06:39:37;10.50;99.90
21568;DHT22;10944;42.590;12.630;2022-10-31T06:42:04;10.70;99.90
21568;DHT22;10944;42.590;12.630;2022-10-31T06:44:30;10.90;99.90
21568;DHT22;10944;42.590;12.630;2022-10-31T06:46:56;11.10;99.90
21568;DHT22;10944;42.590;12.630;2022-10-31T06:49:22;11.10;99.90
21568;DHT22;10944;42.590;12.630;2022-10-31T06:51:49;11.20;99.90
21568;DHT22;10944;42.590;12.630;2022-10-31T06:54:15;11.30;99.90
21568;DHT22;10944;42.590;12.630;2022-10-31T06:56:41;11.40;99.90
21568;DHT22;10944;42.590;12.630;2022-10-31T06:59:06;11.50;99.90
21568;DHT22;10944;42.590;12.630;2022-10-31T07:01:33;11.40;99.90
21568;DHT22;10944;42.590;12.630;2022-10-31T07:03:58;11.50;99.90
21568;DHT22;10944;42.590;12.630;2022-10-31T07:06:24;11.50;99.90
21568;DHT22;10944;42.590;12.630;2022-10-31T07:08:50;11.40;99.90
21568;DHT22;10944;42.590;12.630;2022-10-31T07:11:15;11.50;99.90
21568;DHT22;10944;42.590;12.630;2022-10-31T07:13:41;11.50;99.90
21568;DHT22;10944;42.590;12.630;2022-10-31T07:16:07;11.60;99.90
21568;DHT22;10944;42.590;12.630;2022-10-31T07:18:33;11.70;99.90
21568;DHT22;10944;42.590;12.630;2022-10-31T07:20:59;11.70;99.90
21568;DHT22;10944;42.590;12.630;2022-10-31T07:23:28;11.80;99.90
21568;DHT22;10944;42.590;12.630;2022-10-31T07:25:58;11.80;99.90
21568;DHT22;10944;42.590;12.630;2022-10-31T07:28:25;11.90;99.90
21568;DHT22;10944;42.590;12.630;2022-10-31T07:30:56;11.90;99.90
21568;DHT22;10944;42.590;12.630;2022-10-31T07:33:22;11.90;99.90
21568;DHT22;10944;42.590;12.630;2022-10-31T07:35:48;11.90;99.90
21568;DHT22;10944;42.590;12.630;2022-10-31T07:38:14;12.00;99.90
21568;DHT22;10944;42.590;12.630;2022-10-31T07:40:41;12.10;99.90
21568;DHT22;10944;42.590;12.630;2022-10-31T07:43:08;12.20;99.90
21568;DHT22;10944;42.590;12.630;2022-10-31T07:45:34;12.30;99.90
21568;DHT22;10944;42.590;12.630;2022-10-31T07:47:59;12.30;99.90
21568;DHT22;10944;42.590;12.630;2022-10-31T07:50:27;12.40;99.90
21568;DHT22;10944;42.590;12.630;2022-10-31T07:53:07;12.40;99.90
21568;DHT22;10944;42.590;12.630;2022-10-31T07:55:34;12.50;99.90
21568;DHT22;10944;42.590;12.630;2022-10-31T07:58:02;12.60;99.90
21568;DHT22;10944;42.590;12.630;2022-10-31T08:00:28;12.60;99.90
21568;DHT22;10944;42.590;12.630;2022-10-31T08:03:03;12.60;99.90
21568;DHT22;10944;42.590;12.630;2022-10-31T08:05:30;12.70;99.90
21568;DHT22;10944;42.590;12.630;2022-10-31T08:07:56;12.70;99.90
21568;DHT22;10944;42.590;12.630;2022-10-31T08:10:23;12.80;99.90
21568;DHT22;10944;42.590;12.630;2022-10-31T08:13:17;12.80;99.90
21568;DHT22;10944;42.590;12.630;2022-10-31T08:15:43;12.90;99.90
21568;DHT22;10944;42.590;12.630;2022-10-31T08:18:12;12.90;99.90
21568;DHT22;10944;42.590;12.630;2022-10-31T08:20:38;13.00;99.90
21568;DHT22;10944;42.590;12.630;2022-10-31T08:23:05;13.10;99.90
21568;DHT22;10944;42.590;12.630;2022-10-31T08:25:33;13.20;99.90
21568;DHT22;10944;42.590;12.630;2022-10-31T08:28:00;13.30;99.90
21568;DHT22;10944;42.590;12.630;2022-10-31T08:30:31;13.30;99.90
21568;DHT22;10944;42.590;12.630;2022-10-31T08:35:33;13.50;99.90
21568;DHT22;10944;42.590;12.630;2022-10-31T08:37:59;13.50;99.90
21568;DHT22;10944;42.590;12.630;2022-10-31T08:40:26;13.60;99.90
21568;DHT22;10944;42.590;12.630;2022-10-31T08:43:05;13.60;99.90
21568;DHT22;10944;42.590;12.630;2022-10-31T08:45:33;13.70;99.90
21568;DHT22;10944;42.590;12.630;2022-10-31T08:48:00;13.80;99.90
21568;DHT22;10944;42.590;12.630;2022-10-31T08:50:27;13.80;99.90
21568;DHT22;10944;42.590;12.630;2022-10-31T08:52:53;13.80;99.90
21568;DHT22;10944;42.590;12.630;2022-10-31T08:55:19;13.90;99.90
21568;DHT22;10944;42.590;12.630;2022-10-31T08:57:45;13.90;99.90
21568;DHT22;10944;42.590;12.630;2022-10-31T09:00:11;14.00;99.90
21568;DHT22;10944;42.590;12.630;2022-10-31T09:02:36;14.10;99.90
21568;DHT22;10944;42.590;12.630;2022-10-31T09:05:04;14.10;99.90
21568;DHT22;10944;42.590;12.630;2022-10-31T09:07:30;14.20;99.90
21568;DHT22;10944;42.590;12.630;2022-10-31T09:09:55;14.30;99.90
21568;DHT22;10944;42.590;12.630;2022-10-31T09:12:21;14.40;99.90
21568;DHT22;10944;42.590;12.630;2022-10-31T09:14:49;14.50;99.90
21568;DHT22;10944;42.590;12.630;2022-10-31T09:17:14;14.50;99.90
21568;DHT22;10944;42.590;12.630;2022-10-31T09:19:40;14.60;99.90
21568;DHT22;10944;42.590;12.630;2022-10-31T09:22:06;14.60;99.90
21568;DHT22;10944;42.590;12.630;2022-10-31T09:24:31;14.70;99.90
21568;DHT22;10944;42.590;12.630;2022-10-31T09:26:58;14.70;99.90
21568;DHT22;10944;42.590;12.630;2022-10-31T09:29:24;14.80;99.90
21568;DHT22;10944;42.590;12.630;2022-10-31T09:31:49;14.90;99.90
21568;DHT22;10944;42.590;12.630;2022-10-31T09:34:15;15.00;99.90
21568;DHT22;10944;42.590;12.630;2022-10-31T09:36:41;15.10;99.90
21568;DHT22;10944;42.590;12.630;2022-10-31T09:39:08;15.20;99.90
21568;DHT22;10944;42.590;12.630;2022-10-31T09:55:53;15.60;99.90
21568;DHT22;10944;42.590;12.630;2022-10-31T09:58:27;15.70;99.90
21568;DHT22;10944;42.590;12.630;2022-10-31T10:00:59;15.70;99.90
21568;DHT22;10944;42.590;12.630;2022-10-31T10:03:39;15.80;99.90
21568;DHT22;10944;42.590;12.630;2022-10-31T10:06:17;15.80;99.90
21568;DHT22;10944;42.590;12.630;2022-10-31T10:08:44;15.90;99.90
21568;DHT22;10944;42.590;12.630;2022-10-31T10:25:00;16.40;99.90
21568;DHT22;10944;42.590;12.630;2022-10-31T10:30:01;16.50;99.90
21568;DHT22;10944;42.590;12.630;2022-10-31T10:32:29;16.60;99.90
21568;DHT22;10944;42.590;12.630;2022-10-31T10:35:16;16.70;99.90
21568;DHT22;10944;42.590;12.630;2022-10-31T10:37:45;16.70;99.90
21568;DHT22;10944;42.590;12.630;2022-10-31T10:40:16;16.80;99.90
21568;DHT22;10944;42.590;12.630;2022-10-31T10:57:32;17.10;99.90
21568;DHT22;10944;42.590;12.630;2022-10-31T11:00:03;17.10;99.90
21568;DHT22;10944;42.590;12.630;2022-10-31T11:02:36;17.20;99.90
21568;DHT22;10944;42.590;12.630;2022-10-31T11:05:03;17.40;99.90
21568;DHT22;10944;42.590;12.630;2022-10-31T11:07:39;17.50;99.90
21568;DHT22;10944;42.590;12.630;2022-10-31T11:10:06;17.50;99.90
21568;DHT22;10944;42.590;12.630;2022-10-31T11:12:40;17.50;99.90
21568;DHT22;10944;42.590;12.630;2022-10-31T11:15:20;17.50;99.90
21568;DHT22;10944;42.590;12.630;2022-10-31T11:17:49;17.60;99.90
21568;DHT22;10944;42.590;12.630;2022-10-31T11:22:43;17.70;99.90
21568;DHT22;10944;42.590;12.630;2022-10-31T11:25:26;17.70;99.90
21568;DHT22;10944;42.590;12.630;2022-10-31T11:28:07;17.90;99.90
21568;DHT22;10944;42.590;12.630;2022-10-31T11:30:57;18.00;99.90
21568;DHT22;10944;42.590;12.630;2022-10-31T11:35:55;18.10;99.90
21568;DHT22;10944;42.590;12.630;2022-10-31T11:38:23;18.00;99.90
21568;DHT22;10944;42.590;12.630;2022-10-31T11:41:04;18.10;99.90
21568;DHT22;10944;42.590;12.630;2022-10-31T11:43:31;18.10;99.90
21568;DHT22;10944;42.590;12.630;2022-10-31T11:45:57;18.40;99.90
21568;DHT22;10944;42.590;12.630;2022-10-31T11:48:23;18.40;99.90
21568;DHT22;10944;42.590;12.630;2022-10-31T11:50:54;18.50;99.90
21568;DHT22;10944;42.590;12.630;2022-10-31T11:53:33;18.60;99.90
21568;DHT22;10944;42.590;12.630;2022-10-31T11:56:15;18.60;99.90
21568;DHT22;10944;42.590;12.630;2022-10-31T11:58:42;18.70;99.90
21568;DHT22;10944;42.590;12.630;2022-10-31T12:01:24;18.70;99.90
21568;DHT22;10944;42.590;12.630;2022-10-31T12:04:10;18.70;99.90
21568;DHT22;10944;42.590;12.630;2022-10-31T12:06:42;18.70;99.90
21568;DHT22;10944;42.590;12.630;2022-10-31T12:09:24;18.70;99.90
21568;DHT22;10944;42.590;12.630;2022-10-31T12:23:06;18.90;99.90
21568;DHT22;10944;42.590;12.630;2022-10-31T12:52:01;19.50;99.90
21568;DHT22;10944;42.590;12.630;2022-10-31T12:54:20;19.40;99.90
21568;DHT22;10944;42.590;12.630;2022-10-31T13:02:41;19.60;99.90
21568;DHT22;10944;42.590;12.630;2022-10-31T13:10:22;19.70;99.90
21568;DHT22;10944;42.590;12.630;2022-10-31T13:12:53;19.80;99.10
21568;DHT22;10944;42.590;12.630;2022-10-31T13:15:25;19.80;99.10
21568;DHT22;10944;42.590;12.630;2022-10-31T13:17:55;19.80;99.70
21568;DHT22;10944;42.590;12.630;2022-10-31T13:20:30;19.90;99.60
21568;DHT22;10944;42.590;12.630;2022-10-31T13:23:27;19.90;99.60
21568;DHT22;10944;42.590;12.630;2022-10-31T13:25:59;19.80;99.60
21568;DHT22;10944;42.590;12.630;2022-10-31T13:28:44;19.80;99.50
21568;DHT22;10944;42.590;12.630;2022-10-31T13:31:12;20.00;99.30
21568;DHT22;10944;42.590;12.630;2022-10-31T13:33:53;19.90;98.40
21568;DHT22;10944;42.590;12.630;2022-10-31T13:36:40;20.00;99.00
21568;DHT22;10944;42.590;12.630;2022-10-31T13:39:32;20.00;99.10
21568;DHT22;10944;42.590;12.630;2022-10-31T13:42:14;20.10;98.00
21568;DHT22;10944;42.590;12.630;2022-10-31T13:44:42;20.30;97.50
21568;DHT22;10944;42.590;12.630;2022-10-31T13:47:38;20.40;97.00
21568;DHT22;10944;42.590;12.630;2022-10-31T13:50:25;20.40;97.10
21568;DHT22;10944;42.590;12.630;2022-10-31T13:52:51;20.20;97.40
21568;DHT22;10944;42.590;12.630;2022-10-31T13:55:44;20.10;97.10
21568;DHT22;10944;42.590;12.630;2022-10-31T13:58:26;20.30;96.00
21568;DHT22;10944;42.590;12.630;2022-10-31T14:01:11;20.30;97.20
21568;DHT22;10944;42.590;12.630;2022-10-31T14:03:40;20.00;97.90
21568;DHT22;10944;42.590;12.630;2022-10-31T14:06:08;20.00;97.00
21568;DHT22;10944;42.590;12.630;2022-10-31T14:08:39;20.00;95.80
21568;DHT22;10944;42.590;12.630;2022-10-31T14:11:06;20.10;96.10
21568;DHT22;10944;42.590;12.630;2022-10-31T14:13:42;20.00;95.70
21568;DHT22;10944;42.590;12.630;2022-10-31T14:16:35;20.00;95.90
21568;DHT22;10944;42.590;12.630;2022-10-31T14:19:20;20.10;95.90
21568;DHT22;10944;42.590;12.630;2022-10-31T14:21:49;20.00;96.30
21568;DHT22;10944;42.590;12.630;2022-10-31T14:26:58;19.80;97.00
21568;DHT22;10944;42.590;12.630;2022-10-31T14:29:27;19.80;96.60
21568;DHT22;10944;42.590;12.630;2022-10-31T14:31:57;19.80;96.70
21568;DHT22;10944;42.590;12.630;2022-10-31T14:34:35;19.90;96.20
21568;DHT22;10944;42.590;12.630;2022-10-31T14:37:16;20.00;96.20
21568;DHT22;10944;42.590;12.630;2022-10-31T14:40:01;20.00;96.30
21568;DHT22;10944;42.590;12.630;2022-10-31T14:43:21;20.20;95.90
21568;DHT22;10944;42.590;12.630;2022-10-31T14:53:20;20.00;97.30
21568;DHT22;10944;42.590;12.630;2022-10-31T14:55:49;19.90;97.60
21568;DHT22;10944;42.590;12.630;2022-10-31T14:58:24;19.90;97.30
21568;DHT22;10944;42.590;12.630;2022-10-31T15:00:55;19.70;97.80
21568;DHT22;10944;42.590;12.630;2022-10-31T15:03:35;19.60;98.10
21568;DHT22;10944;42.590;12.630;2022-10-31T15:06:11;19.60;97.90
21568;DHT22;10944;42.590;12.630;2022-10-31T15:08:45;19.50;98.50
21568;DHT22;10944;42.590;12.630;2022-10-31T15:13:56;19.30;99.90
21568;DHT22;10944;42.590;12.630;2022-10-31T15:16:26;19.20;99.90
21568;DHT22;10944;42.590;12.630;2022-10-31T15:18:56;19.20;99.90
21568;DHT22;10944;42.590;12.630;2022-10-31T15:21:24;19.00;99.90
21568;DHT22;10944;42.590;12.630;2022-10-31T15:23:52;18.90;99.90
21568;DHT22;10944;42.590;12.630;2022-10-31T15:26:22;18.90;99.90
21568;DHT22;10944;42.590;12.630;2022-10-31T15:29:03;18.80;99.90
21568;DHT22;10944;42.590;12.630;2022-10-31T15:31:29;18.70;99.90
21568;DHT22;10944;42.590;12.630;2022-10-31T15:34:00;18.70;99.90
21568;DHT22;10944;42.590;12.630;2022-10-31T15:36:28;18.60;99.90
21568;DHT22;10944;42.590;12.630;2022-10-31T15:38:55;18.60;99.90
21568;DHT22;10944;42.590;12.630;2022-10-31T15:41:33;18.80;99.90
21568;DHT22;10944;42.590;12.630;2022-10-31T15:44:15;18.70;99.90
21568;DHT22;10944;42.590;12.630;2022-10-31T15:46:42;18.60;99.90
21568;DHT22;10944;42.590;12.630;2022-10-31T15:49:27;18.50;99.90
21568;DHT22;10944;42.590;12.630;2022-10-31T15:51:54;18.40;99.90
21568;DHT22;10944;42.590;12.630;2022-10-31T15:54:21;18.40;99.90
21568;DHT22;10944;42.590;12.630;2022-10-31T15:56:47;18.30;99.90
21568;DHT22;10944;42.590;12.630;2022-10-31T15:59:25;18.20;99.90
21568;DHT22;10944;42.590;12.630;2022-10-31T16:02:00;18.20;99.90
21568;DHT22;10944;42.590;12.630;2022-10-31T16:04:26;18.10;99.90
21568;DHT22;10944;42.590;12.630;2022-10-31T16:07:00;18.10;99.90
21568;DHT22;10944;42.590;12.630;2022-10-31T16:09:27;18.00;99.90
21568;DHT22;10944;42.590;12.630;2022-10-31T16:11:56;17.90;99.90
21568;DHT22;10944;42.590;12.630;2022-10-31T16:14:28;17.90;99.90
21568;DHT22;10944;42.590;12.630;2022-10-31T16:16:56;17.90;99.90
21568;DHT22;10944;42.590;12.630;2022-10-31T16:19:27;17.90;99.90
21568;DHT22;10944;42.590;12.630;2022-10-31T16:22:01;17.80;99.90
21568;DHT22;10944;42.590;12.630;2022-10-31T16:24:30;17.70;99.90
21568;DHT22;10944;42.590;12.630;2022-10-31T16:27:19;17.70;99.90
21568;DHT22;10944;42.590;12.630;2022-10-31T16:29:48;17.60;99.90
21568;DHT22;10944;42.590;12.630;2022-10-31T16:32:34;17.70;99.90
21568;DHT22;10944;42.590;12.630;2022-10-31T16:37:39;17.90;99.90
21568;DHT22;10944;42.590;12.630;2022-10-31T16:40:05;17.80;99.90
21568;DHT22;10944;42.590;12.630;2022-10-31T16:42:32;17.90;99.90
21568;DHT22;10944;42.590;12.630;2022-10-31T16:44:58;17.90;99.60
21568;DHT22;10944;42.590;12.630;2022-10-31T16:47:24;18.00;99.30
21568;DHT22;10944;42.590;12.630;2022-10-31T16:49:50;18.00;99.30
21568;DHT22;10944;42.590;12.630;2022-10-31T16:52:16;18.00;99.10
21568;DHT22;10944;42.590;12.630;2022-10-31T16:54:42;17.90;99.50
21568;DHT22;10944;42.590;12.630;2022-10-31T16:57:16;17.70;99.50
21568;DHT22;10944;42.590;12.630;2022-10-31T16:59:42;17.50;99.90
21568;DHT22;10944;42.590;12.630;2022-10-31T17:02:15;17.30;99.90
21568;DHT22;10944;42.590;12.630;2022-10-31T17:04:41;17.10;99.90
21568;DHT22;10944;42.590;12.630;2022-10-31T17:07:07;16.90;99.90
21568;DHT22;10944;42.590;12.630;2022-10-31T17:09:32;16.90;99.90
21568;DHT22;10944;42.590;12.630;2022-10-31T17:11:58;16.80;99.90
21568;DHT22;10944;42.590;12.630;2022-10-31T17:14:25;16.70;99.90
21568;DHT22;10944;42.590;12.630;2022-10-31T17:16:51;16.60;99.90
21568;DHT22;10944;42.590;12.630;2022-10-31T17:19:16;16.50;99.90
21568;DHT22;10944;42.590;12.630;2022-10-31T17:21:42;16.50;99.90
21568;DHT22;10944;42.590;12.630;2022-10-31T17:24:12;16.40;99.90
21568;DHT22;10944;42.590;12.630;2022-10-31T17:26:39;16.30;99.90
21568;DHT22;10944;42.590;12.630;2022-10-31T17:29:04;16.20;99.90
21568;DHT22;10944;42.590;12.630;2022-10-31T17:31:33;16.10;99.90
21568;DHT22;10944;42.590;12.630;2022-10-31T17:34:01;16.00;99.90
21568;DHT22;10944;42.590;12.630;2022-10-31T17:36:28;15.90;99.90
21568;DHT22;10944;42.590;12.630;2022-10-31T17:38:54;15.90;99.90
21568;DHT22;10944;42.590;12.630;2022-10-31T17:41:20;15.80;99.90
21568;DHT22;10944;42.590;12.630;2022-10-31T17:43:45;15.80;99.90
21568;DHT22;10944;42.590;12.630;2022-10-31T17:46:11;15.70;99.90
21568;DHT22;10944;42.590;12.630;2022-10-31T17:48:37;15.70;99.90
21568;DHT22;10944;42.590;12.630;2022-10-31T17:51:04;15.60;99.90
21568;DHT22;10944;42.590;12.630;2022-10-31T17:53:31;15.40;99.90
21568;DHT22;10944;42.590;12.630;2022-10-31T17:56:05;15.50;99.90
21568;DHT22;10944;42.590;12.630;2022-10-31T17:58:32;15.50;99.90
21568;DHT22;10944;42.590;12.630;2022-10-31T18:00:58;15.40;99.90
21568;DHT22;10944;42.590;12.630;2022-10-31T18:03:25;15.30;99.90